sensor_id;sensor_type;location;lat;lon;timestamp;temperature;humidity
48579;DHT22;34357;51.948;6.132;2023-05-10T00:00:51;12.90;94.40
48579;DHT22;34357;51.948;6.132;2023-05-10T00:03:17;12.90;94.50
48579;DHT22;34357;51.948;6.132;2023-05-10T00:05:43;12.90;94.40
48579;DHT22;34357;51.948;6.132;2023-05-10T00:08:09;12.90;94.50
48579;DHT22;34357;51.948;6.132;2023-05-10T00:10:34;12.90;94.50
48579;DHT22;34357;51.948;6.132;2023-05-10T00:13:00;12.90;94.50
48579;DHT22;34357;51.948;6.132;2023-05-10T00:15:26;13.00;94.50
48579;DHT22;34357;51.948;6.132;2023-05-10T00:17:51;12.90;94.60
48579;DHT22;34357;51.948;6.132;2023-05-10T00:20:17;13.00;94.50
48579;DHT22;34357;51.948;6.132;2023-05-10T00:22:43;12.90;94.50
48579;DHT22;34357;51.948;6.132;2023-05-10T00:25:09;13.00;94.50
48579;DHT22;34357;51.948;6.132;2023-05-10T00:27:35;13.00;94.50
48579;DHT22;34357;51.948;6.132;2023-05-10T00:30:01;13.10;94.60
48579;DHT22;34357;51.948;6.132;2023-05-10T00:32:28;13.00;94.60
48579;DHT22;34357;51.948;6.132;2023-05-10T00:34:54;13.00;94.60
48579;DHT22;34357;51.948;6.132;2023-05-10T00:37:20;13.10;94.60
48579;DHT22;34357;51.948;6.132;2023-05-10T00:39:46;13.00;94.60
48579;DHT22;34357;51.948;6.132;2023-05-10T00:42:11;13.10;94.60
48579;DHT22;34357;51.948;6.132;2023-05-10T00:44:37;13.00;94.50
48579;DHT22;34357;51.948;6.132;2023-05-10T00:47:04;13.10;94.60
48579;DHT22;34357;51.948;6.132;2023-05-10T00:49:30;13.10;94.60
48579;DHT22;34357;51.948;6.132;2023-05-10T00:51:56;13.10;94.70
48579;DHT22;34357;51.948;6.132;2023-05-10T00:54:22;13.20;94.60
48579;DHT22;34357;51.948;6.132;2023-05-10T00:56:48;13.10;94.60
48579;DHT22;34357;51.948;6.132;2023-05-10T00:59:18;13.20;94.70
48579;DHT22;34357;51.948;6.132;2023-05-10T01:01:45;13.20;94.60
48579;DHT22;34357;51.948;6.132;2023-05-10T01:04:15;13.20;94.70
48579;DHT22;34357;51.948;6.132;2023-05-10T01:06:41;13.10;94.60
48579;DHT22;34357;51.948;6.132;2023-05-10T01:09:07;13.10;94.70
48579;DHT22;34357;51.948;6.132;2023-05-10T01:11:35;13.20;94.80
48579;DHT22;34357;51.948;6.132;2023-05-10T01:14:02;13.20;94.70
48579;DHT22;34357;51.948;6.132;2023-05-10T01:16:29;13.20;94.70
48579;DHT22;34357;51.948;6.132;2023-05-10T01:18:57;13.10;94.70
48579;DHT22;34357;51.948;6.132;2023-05-10T01:21:46;13.10;94.80
48579;DHT22;34357;51.948;6.132;2023-05-10T01:35:30;13.20;94.90
48579;DHT22;34357;51.948;6.132;2023-05-10T01:46:57;13.20;94.90
48579;DHT22;34357;51.948;6.132;2023-05-10T01:49:28;13.20;94.90
48579;DHT22;34357;51.948;6.132;2023-05-10T01:51:59;13.20;94.90
48579;DHT22;34357;51.948;6.132;2023-05-10T01:54:27;13.20;94.90
48579;DHT22;34357;51.948;6.132;2023-05-10T01:57:01;13.20;95.00
48579;DHT22;34357;51.948;6.132;2023-05-10T01:59:34;13.30;95.00
48579;DHT22;34357;51.948;6.132;2023-05-10T02:02:07;13.20;94.90
48579;DHT22;34357;51.948;6.132;2023-05-10T02:04:35;13.20;94.80
48579;DHT22;34357;51.948;6.132;2023-05-10T02:07:03;13.20;94.90
48579;DHT22;34357;51.948;6.132;2023-05-10T02:09:32;13.30;95.00
48579;DHT22;34357;51.948;6.132;2023-05-10T02:12:00;13.30;94.90
48579;DHT22;34357;51.948;6.132;2023-05-10T02:14:30;13.30;94.90
48579;DHT22;34357;51.948;6.132;2023-05-10T02:16:58;13.30;94.90
48579;DHT22;34357;51.948;6.132;2023-05-10T02:19:28;13.30;94.90
48579;DHT22;34357;51.948;6.132;2023-05-10T02:21:56;13.30;94.90
48579;DHT22;34357;51.948;6.132;2023-05-10T02:24:23;13.30;95.00
48579;DHT22;34357;51.948;6.132;2023-05-10T02:26:51;13.40;94.90
48579;DHT22;34357;51.948;6.132;2023-05-10T02:29:19;13.30;94.90
48579;DHT22;34357;51.948;6.132;2023-05-10T02:31:47;13.30;94.90
48579;DHT22;34357;51.948;6.132;2023-05-10T02:34:13;13.40;94.90
48579;DHT22;34357;51.948;6.132;2023-05-10T02:36:40;13.40;94.80
48579;DHT22;34357;51.948;6.132;2023-05-10T02:39:07;13.40;94.80
48579;DHT22;34357;51.948;6.132;2023-05-10T02:41:40;13.30;94.70
48579;DHT22;34357;51.948;6.132;2023-05-10T02:44:07;13.30;94.80
48579;DHT22;34357;51.948;6.132;2023-05-10T02:46:34;13.30;94.70
48579;DHT22;34357;51.948;6.132;2023-05-10T02:49:01;13.40;94.70
48579;DHT22;34357;51.948;6.132;2023-05-10T02:51:30;13.40;94.70
48579;DHT22;34357;51.948;6.132;2023-05-10T02:53:57;13.30;94.60
48579;DHT22;34357;51.948;6.132;2023-05-10T02:56:31;13.30;94.60
48579;DHT22;34357;51.948;6.132;2023-05-10T02:58:58;13.30;94.60
48579;DHT22;34357;51.948;6.132;2023-05-10T03:01:24;13.40;94.60
48579;DHT22;34357;51.948;6.132;2023-05-10T03:03:49;13.40;94.60
48579;DHT22;34357;51.948;6.132;2023-05-10T03:06:15;13.30;94.50
48579;DHT22;34357;51.948;6.132;2023-05-10T03:08:43;13.40;94.60
48579;DHT22;34357;51.948;6.132;2023-05-10T03:14:12;13.40;94.60
48579;DHT22;34357;51.948;6.132;2023-05-10T03:16:45;13.40;94.50
48579;DHT22;34357;51.948;6.132;2023-05-10T03:19:26;13.30;94.50
48579;DHT22;34357;51.948;6.132;2023-05-10T03:21:53;13.30;94.50
48579;DHT22;34357;51.948;6.132;2023-05-10T03:24:23;13.20;94.40
48579;DHT22;34357;51.948;6.132;2023-05-10T03:26:53;13.30;94.50
48579;DHT22;34357;51.948;6.132;2023-05-10T03:29:22;13.20;94.50
48579;DHT22;34357;51.948;6.132;2023-05-10T03:31:48;13.20;94.50
48579;DHT22;34357;51.948;6.132;2023-05-10T03:34:14;13.20;94.60
48579;DHT22;34357;51.948;6.132;2023-05-10T03:36:40;13.20;94.50
48579;DHT22;34357;51.948;6.132;2023-05-10T03:39:06;13.10;94.40
48579;DHT22;34357;51.948;6.132;2023-05-10T03:41:32;13.00;94.40
48579;DHT22;34357;51.948;6.132;2023-05-10T03:43:58;13.00;94.40
48579;DHT22;34357;51.948;6.132;2023-05-10T03:46:23;12.90;94.40
48579;DHT22;34357;51.948;6.132;2023-05-10T03:48:49;12.90;94.50
48579;DHT22;34357;51.948;6.132;2023-05-10T03:51:15;12.90;94.50
48579;DHT22;34357;51.948;6.132;2023-05-10T03:53:41;13.00;94.50
48579;DHT22;34357;51.948;6.132;2023-05-10T03:56:07;12.90;94.50
48579;DHT22;34357;51.948;6.132;2023-05-10T03:58:32;12.90;94.50
48579;DHT22;34357;51.948;6.132;2023-05-10T04:00:58;12.90;94.40
48579;DHT22;34357;51.948;6.132;2023-05-10T04:03:24;12.80;94.30
48579;DHT22;34357;51.948;6.132;2023-05-10T04:06:00;12.80;94.50
48579;DHT22;34357;51.948;6.132;2023-05-10T04:08:27;12.80;94.40
48579;DHT22;34357;51.948;6.132;2023-05-10T04:10:52;12.80;94.60
48579;DHT22;34357;51.948;6.132;2023-05-10T04:13:18;12.80;94.50
48579;DHT22;34357;51.948;6.132;2023-05-10T04:15:45;12.80;94.40
48579;DHT22;34357;51.948;6.132;2023-05-10T04:18:10;12.80;94.50
48579;DHT22;34357;51.948;6.132;2023-05-10T04:20:37;12.70;94.40
48579;DHT22;34357;51.948;6.132;2023-05-10T04:23:02;12.70;94.30
48579;DHT22;34357;51.948;6.132;2023-05-10T04:25:28;12.70;94.30
48579;DHT22;34357;51.948;6.132;2023-05-10T04:27:54;12.70;94.40
48579;DHT22;34357;51.948;6.132;2023-05-10T04:30:19;12.70;94.30
48579;DHT22;34357;51.948;6.132;2023-05-10T04:32:45;12.80;94.40
48579;DHT22;34357;51.948;6.132;2023-05-10T04:35:11;12.80;94.40
48579;DHT22;34357;51.948;6.132;2023-05-10T04:37:36;12.70;94.30
48579;DHT22;34357;51.948;6.132;2023-05-10T04:40:03;12.70;94.30
48579;DHT22;34357;51.948;6.132;2023-05-10T04:42:29;12.70;94.30
48579;DHT22;34357;51.948;6.132;2023-05-10T04:44:54;12.70;94.40
48579;DHT22;34357;51.948;6.132;2023-05-10T04:47:20;12.80;94.40
48579;DHT22;34357;51.948;6.132;2023-05-10T04:49:46;12.80;94.30
48579;DHT22;34357;51.948;6.132;2023-05-10T04:52:11;12.80;94.30
48579;DHT22;34357;51.948;6.132;2023-05-10T04:54:37;12.70;94.20
48579;DHT22;34357;51.948;6.132;2023-05-10T04:57:03;12.80;94.30
48579;DHT22;34357;51.948;6.132;2023-05-10T04:59:28;12.90;94.40
48579;DHT22;34357;51.948;6.132;2023-05-10T05:01:54;12.90;94.20
48579;DHT22;34357;51.948;6.132;2023-05-10T05:04:20;12.90;94.20
48579;DHT22;34357;51.948;6.132;2023-05-10T05:06:48;12.80;94.20
48579;DHT22;34357;51.948;6.132;2023-05-10T05:09:13;12.90;94.30
48579;DHT22;34357;51.948;6.132;2023-05-10T05:11:39;12.90;94.30
48579;DHT22;34357;51.948;6.132;2023-05-10T05:14:05;12.90;94.20
48579;DHT22;34357;51.948;6.132;2023-05-10T05:16:31;12.90;94.20
48579;DHT22;34357;51.948;6.132;2023-05-10T05:18:57;12.90;94.20
48579;DHT22;34357;51.948;6.132;2023-05-10T05:21:23;12.90;94.10
48579;DHT22;34357;51.948;6.132;2023-05-10T05:23:50;12.90;94.10
48579;DHT22;34357;51.948;6.132;2023-05-10T05:26:16;12.90;94.00
48579;DHT22;34357;51.948;6.132;2023-05-10T05:28:41;13.10;94.10
48579;DHT22;34357;51.948;6.132;2023-05-10T05:31:07;13.00;94.00
48579;DHT22;34357;51.948;6.132;2023-05-10T05:33:34;13.10;94.00
48579;DHT22;34357;51.948;6.132;2023-05-10T05:36:04;13.00;94.00
48579;DHT22;34357;51.948;6.132;2023-05-10T05:38:30;13.00;93.90
48579;DHT22;34357;51.948;6.132;2023-05-10T05:40:56;13.00;93.90
48579;DHT22;34357;51.948;6.132;2023-05-10T05:43:22;13.10;94.10
48579;DHT22;34357;51.948;6.132;2023-05-10T05:45:48;13.10;93.90
48579;DHT22;34357;51.948;6.132;2023-05-10T05:48:13;13.10;94.00
48579;DHT22;34357;51.948;6.132;2023-05-10T05:50:39;13.00;93.70
48579;DHT22;34357;51.948;6.132;2023-05-10T05:53:05;13.10;93.90
48579;DHT22;34357;51.948;6.132;2023-05-10T05:55:30;13.10;93.70
48579;DHT22;34357;51.948;6.132;2023-05-10T05:57:57;13.10;93.70
48579;DHT22;34357;51.948;6.132;2023-05-10T06:00:23;13.10;93.60
48579;DHT22;34357;51.948;6.132;2023-05-10T06:02:49;13.10;93.70
48579;DHT22;34357;51.948;6.132;2023-05-10T06:05:15;13.10;93.60
48579;DHT22;34357;51.948;6.132;2023-05-10T06:07:41;13.10;93.50
48579;DHT22;34357;51.948;6.132;2023-05-10T06:10:09;13.10;93.60
48579;DHT22;34357;51.948;6.132;2023-05-10T06:12:35;13.10;93.70
48579;DHT22;34357;51.948;6.132;2023-05-10T06:15:02;13.20;93.70
48579;DHT22;34357;51.948;6.132;2023-05-10T06:17:28;13.20;93.80
48579;DHT22;34357;51.948;6.132;2023-05-10T06:19:54;13.30;93.90
48579;DHT22;34357;51.948;6.132;2023-05-10T06:22:20;13.30;93.80
48579;DHT22;34357;51.948;6.132;2023-05-10T06:24:48;13.40;93.80
48579;DHT22;34357;51.948;6.132;2023-05-10T06:27:14;13.30;93.90
48579;DHT22;34357;51.948;6.132;2023-05-10T06:29:39;13.20;93.90
48579;DHT22;34357;51.948;6.132;2023-05-10T06:32:05;13.30;94.00
48579;DHT22;34357;51.948;6.132;2023-05-10T06:34:31;13.30;94.00
48579;DHT22;34357;51.948;6.132;2023-05-10T06:36:57;13.40;94.20
48579;DHT22;34357;51.948;6.132;2023-05-10T06:39:23;13.50;94.10
48579;DHT22;34357;51.948;6.132;2023-05-10T06:41:49;13.40;93.90
48579;DHT22;34357;51.948;6.132;2023-05-10T06:44:14;13.50;94.10
48579;DHT22;34357;51.948;6.132;2023-05-10T06:46:40;13.40;93.70
48579;DHT22;34357;51.948;6.132;2023-05-10T06:49:07;13.50;94.00
48579;DHT22;34357;51.948;6.132;2023-05-10T06:51:33;13.60;94.00
48579;DHT22;34357;51.948;6.132;2023-05-10T06:53:59;13.50;93.70
48579;DHT22;34357;51.948;6.132;2023-05-10T06:56:24;13.50;93.40
48579;DHT22;34357;51.948;6.132;2023-05-10T06:58:50;13.50;93.60
48579;DHT22;34357;51.948;6.132;2023-05-10T07:01:16;13.60;93.70
48579;DHT22;34357;51.948;6.132;2023-05-10T07:03:41;13.60;93.70
48579;DHT22;34357;51.948;6.132;2023-05-10T07:06:07;13.70;93.60
48579;DHT22;34357;51.948;6.132;2023-05-10T07:08:34;13.70;93.50
48579;DHT22;34357;51.948;6.132;2023-05-10T07:11:04;13.70;93.50
48579;DHT22;34357;51.948;6.132;2023-05-10T07:13:31;13.50;93.30
48579;DHT22;34357;51.948;6.132;2023-05-10T07:15:58;13.60;93.50
48579;DHT22;34357;51.948;6.132;2023-05-10T07:18:24;13.70;93.40
48579;DHT22;34357;51.948;6.132;2023-05-10T07:20:50;13.70;93.20
48579;DHT22;34357;51.948;6.132;2023-05-10T07:23:15;13.70;93.00
48579;DHT22;34357;51.948;6.132;2023-05-10T07:25:45;13.60;92.90
48579;DHT22;34357;51.948;6.132;2023-05-10T07:28:11;13.60;92.90
48579;DHT22;34357;51.948;6.132;2023-05-10T07:30:37;13.50;92.90
48579;DHT22;34357;51.948;6.132;2023-05-10T07:33:02;13.50;93.10
48579;DHT22;34357;51.948;6.132;2023-05-10T07:35:28;13.50;93.10
48579;DHT22;34357;51.948;6.132;2023-05-10T07:37:54;13.50;93.00
48579;DHT22;34357;51.948;6.132;2023-05-10T07:40:20;13.50;93.00
48579;DHT22;34357;51.948;6.132;2023-05-10T07:42:45;13.50;93.10
48579;DHT22;34357;51.948;6.132;2023-05-10T07:45:11;13.50;93.00
48579;DHT22;34357;51.948;6.132;2023-05-10T07:47:37;13.50;93.10
48579;DHT22;34357;51.948;6.132;2023-05-10T07:50:03;13.50;93.20
48579;DHT22;34357;51.948;6.132;2023-05-10T07:52:30;13.50;93.30
48579;DHT22;34357;51.948;6.132;2023-05-10T07:54:56;13.50;93.20
48579;DHT22;34357;51.948;6.132;2023-05-10T07:57:22;13.60;93.40
48579;DHT22;34357;51.948;6.132;2023-05-10T07:59:48;13.80;93.40
48579;DHT22;34357;51.948;6.132;2023-05-10T08:02:13;13.70;93.20
48579;DHT22;34357;51.948;6.132;2023-05-10T08:04:39;13.90;93.30
48579;DHT22;34357;51.948;6.132;2023-05-10T08:07:05;13.90;93.10
48579;DHT22;34357;51.948;6.132;2023-05-10T08:09:31;13.90;92.90
48579;DHT22;34357;51.948;6.132;2023-05-10T08:11:56;14.00;92.80
48579;DHT22;34357;51.948;6.132;2023-05-10T08:14:24;13.90;92.60
48579;DHT22;34357;51.948;6.132;2023-05-10T08:16:49;13.90;92.60
48579;DHT22;34357;51.948;6.132;2023-05-10T08:19:15;13.90;92.60
48579;DHT22;34357;51.948;6.132;2023-05-10T08:21:45;13.90;92.60
48579;DHT22;34357;51.948;6.132;2023-05-10T08:24:10;13.90;92.70
48579;DHT22;34357;51.948;6.132;2023-05-10T08:26:36;13.90;92.60
48579;DHT22;34357;51.948;6.132;2023-05-10T08:29:02;13.90;93.00
48579;DHT22;34357;51.948;6.132;2023-05-10T08:31:28;14.00;93.00
48579;DHT22;34357;51.948;6.132;2023-05-10T08:33:53;14.20;92.90
48579;DHT22;34357;51.948;6.132;2023-05-10T08:36:20;14.20;92.80
48579;DHT22;34357;51.948;6.132;2023-05-10T08:38:49;14.50;92.80
48579;DHT22;34357;51.948;6.132;2023-05-10T08:41:15;14.70;92.90
48579;DHT22;34357;51.948;6.132;2023-05-10T08:43:41;14.90;92.60
48579;DHT22;34357;51.948;6.132;2023-05-10T08:46:16;14.90;92.10
48579;DHT22;34357;51.948;6.132;2023-05-10T08:48:47;14.90;90.80
48579;DHT22;34357;51.948;6.132;2023-05-10T08:51:18;14.70;90.20
48579;DHT22;34357;51.948;6.132;2023-05-10T08:53:45;14.60;91.10
48579;DHT22;34357;51.948;6.132;2023-05-10T08:56:11;14.70;91.00
48579;DHT22;34357;51.948;6.132;2023-05-10T08:58:38;14.70;91.00
48579;DHT22;34357;51.948;6.132;2023-05-10T09:01:05;14.90;90.60
48579;DHT22;34357;51.948;6.132;2023-05-10T09:03:31;15.30;90.80
48579;DHT22;34357;51.948;6.132;2023-05-10T09:05:58;15.40;89.50
48579;DHT22;34357;51.948;6.132;2023-05-10T09:08:24;15.60;88.60
48579;DHT22;34357;51.948;6.132;2023-05-10T09:10:51;15.50;88.90
48579;DHT22;34357;51.948;6.132;2023-05-10T09:13:18;15.50;88.50
48579;DHT22;34357;51.948;6.132;2023-05-10T09:15:44;15.20;88.30
48579;DHT22;34357;51.948;6.132;2023-05-10T09:18:11;14.90;88.60
48579;DHT22;34357;51.948;6.132;2023-05-10T09:20:37;14.90;89.20
48579;DHT22;34357;51.948;6.132;2023-05-10T09:23:03;14.70;88.40
48579;DHT22;34357;51.948;6.132;2023-05-10T09:25:28;14.50;89.10
48579;DHT22;34357;51.948;6.132;2023-05-10T09:27:55;14.60;89.40
48579;DHT22;34357;51.948;6.132;2023-05-10T09:30:28;14.60;89.10
48579;DHT22;34357;51.948;6.132;2023-05-10T09:32:56;14.60;89.20
48579;DHT22;34357;51.948;6.132;2023-05-10T09:35:24;14.80;89.80
48579;DHT22;34357;51.948;6.132;2023-05-10T09:37:52;14.80;89.90
48579;DHT22;34357;51.948;6.132;2023-05-10T09:40:23;14.80;88.40
48579;DHT22;34357;51.948;6.132;2023-05-10T09:43:06;14.70;88.30
48579;DHT22;34357;51.948;6.132;2023-05-10T09:45:33;14.90;88.20
48579;DHT22;34357;51.948;6.132;2023-05-10T09:48:01;15.10;86.90
48579;DHT22;34357;51.948;6.132;2023-05-10T09:50:29;15.20;85.80
48579;DHT22;34357;51.948;6.132;2023-05-10T09:53:00;15.40;84.70
48579;DHT22;34357;51.948;6.132;2023-05-10T09:55:38;15.60;85.30
48579;DHT22;34357;51.948;6.132;2023-05-10T09:58:05;15.70;83.80
48579;DHT22;34357;51.948;6.132;2023-05-10T10:00:40;15.80;83.60
48579;DHT22;34357;51.948;6.132;2023-05-10T10:03:07;15.90;84.10
48579;DHT22;34357;51.948;6.132;2023-05-10T10:05:40;15.80;82.60
48579;DHT22;34357;51.948;6.132;2023-05-10T10:08:06;15.90;84.40
48579;DHT22;34357;51.948;6.132;2023-05-10T10:10:33;15.70;83.80
48579;DHT22;34357;51.948;6.132;2023-05-10T10:12:59;15.60;83.70
48579;DHT22;34357;51.948;6.132;2023-05-10T10:15:25;15.80;85.00
48579;DHT22;34357;51.948;6.132;2023-05-10T10:17:52;15.90;83.70
48579;DHT22;34357;51.948;6.132;2023-05-10T10:20:19;16.30;84.50
48579;DHT22;34357;51.948;6.132;2023-05-10T10:22:46;17.00;83.10
48579;DHT22;34357;51.948;6.132;2023-05-10T10:25:15;17.00;78.70
48579;DHT22;34357;51.948;6.132;2023-05-10T10:30:41;17.50;79.00
48579;DHT22;34357;51.948;6.132;2023-05-10T10:35:37;17.10;77.10
48579;DHT22;34357;51.948;6.132;2023-05-10T10:38:03;16.90;77.90
48579;DHT22;34357;51.948;6.132;2023-05-10T10:40:31;17.40;76.90
48579;DHT22;34357;51.948;6.132;2023-05-10T10:42:57;17.60;74.90
48579;DHT22;34357;51.948;6.132;2023-05-10T10:45:24;17.90;74.90
48579;DHT22;34357;51.948;6.132;2023-05-10T10:48:20;18.20;71.70
48579;DHT22;34357;51.948;6.132;2023-05-10T10:50:47;17.90;71.60
48579;DHT22;34357;51.948;6.132;2023-05-10T10:53:12;17.90;70.70
48579;DHT22;34357;51.948;6.132;2023-05-10T10:55:48;18.00;70.80
48579;DHT22;34357;51.948;6.132;2023-05-10T10:58:30;17.90;73.60
48579;DHT22;34357;51.948;6.132;2023-05-10T11:03:40;19.00;68.80
48579;DHT22;34357;51.948;6.132;2023-05-10T11:06:06;18.80;70.30
48579;DHT22;34357;51.948;6.132;2023-05-10T11:08:35;19.30;70.60
48579;DHT22;34357;51.948;6.132;2023-05-10T11:11:07;18.70;69.80
48579;DHT22;34357;51.948;6.132;2023-05-10T11:13:41;18.30;70.30
48579;DHT22;34357;51.948;6.132;2023-05-10T11:19:13;18.90;69.50
48579;DHT22;34357;51.948;6.132;2023-05-10T11:21:50;18.50;69.40
48579;DHT22;34357;51.948;6.132;2023-05-10T11:24:18;18.30;69.50
48579;DHT22;34357;51.948;6.132;2023-05-10T11:26:45;18.20;72.30
48579;DHT22;34357;51.948;6.132;2023-05-10T11:29:12;18.40;68.60
48579;DHT22;34357;51.948;6.132;2023-05-10T11:31:48;18.60;71.00
48579;DHT22;34357;51.948;6.132;2023-05-10T11:34:30;18.40;70.80
48579;DHT22;34357;51.948;6.132;2023-05-10T11:36:57;18.50;71.30
48579;DHT22;34357;51.948;6.132;2023-05-10T11:39:30;18.30;69.50
48579;DHT22;34357;51.948;6.132;2023-05-10T11:41:57;18.40;70.50
48579;DHT22;34357;51.948;6.132;2023-05-10T11:44:24;18.60;71.20
48579;DHT22;34357;51.948;6.132;2023-05-10T11:46:54;18.50;70.00
48579;DHT22;34357;51.948;6.132;2023-05-10T11:49:20;18.30;70.00
48579;DHT22;34357;51.948;6.132;2023-05-10T11:51:48;18.40;67.60
48579;DHT22;34357;51.948;6.132;2023-05-10T11:54:14;18.00;69.80
48579;DHT22;34357;51.948;6.132;2023-05-10T11:56:41;18.00;69.50
48579;DHT22;34357;51.948;6.132;2023-05-10T11:59:06;18.20;70.20
48579;DHT22;34357;51.948;6.132;2023-05-10T12:01:33;18.30;68.90
48579;DHT22;34357;51.948;6.132;2023-05-10T12:04:00;18.10;69.20
48579;DHT22;34357;51.948;6.132;2023-05-10T12:06:28;18.20;70.10
48579;DHT22;34357;51.948;6.132;2023-05-10T12:08:54;18.50;69.60
48579;DHT22;34357;51.948;6.132;2023-05-10T12:11:24;18.60;69.30
48579;DHT22;34357;51.948;6.132;2023-05-10T12:13:50;18.70;71.30
48579;DHT22;34357;51.948;6.132;2023-05-10T12:16:18;19.20;68.50
48579;DHT22;34357;51.948;6.132;2023-05-10T12:18:45;19.30;68.40
48579;DHT22;34357;51.948;6.132;2023-05-10T12:21:13;19.00;67.50
48579;DHT22;34357;51.948;6.132;2023-05-10T12:23:41;18.90;69.10
48579;DHT22;34357;51.948;6.132;2023-05-10T12:26:09;19.40;67.70
48579;DHT22;34357;51.948;6.132;2023-05-10T12:28:38;19.70;63.70
48579;DHT22;34357;51.948;6.132;2023-05-10T12:31:07;19.00;68.30
48579;DHT22;34357;51.948;6.132;2023-05-10T12:33:41;19.40;67.90
48579;DHT22;34357;51.948;6.132;2023-05-10T12:36:09;19.20;67.60
48579;DHT22;34357;51.948;6.132;2023-05-10T12:38:37;19.00;68.90
48579;DHT22;34357;51.948;6.132;2023-05-10T12:41:05;19.00;68.50
48579;DHT22;34357;51.948;6.132;2023-05-10T12:43:32;18.80;68.40
48579;DHT22;34357;51.948;6.132;2023-05-10T12:45:58;18.50;68.70
48579;DHT22;34357;51.948;6.132;2023-05-10T12:48:24;18.50;69.30
48579;DHT22;34357;51.948;6.132;2023-05-10T12:50:50;18.50;68.50
48579;DHT22;34357;51.948;6.132;2023-05-10T12:53:16;18.50;69.60
48579;DHT22;34357;51.948;6.132;2023-05-10T12:55:43;18.90;68.00
48579;DHT22;34357;51.948;6.132;2023-05-10T12:58:08;19.10;67.70
48579;DHT22;34357;51.948;6.132;2023-05-10T13:00:34;19.20;65.90
48579;DHT22;34357;51.948;6.132;2023-05-10T13:03:00;19.00;67.80
48579;DHT22;34357;51.948;6.132;2023-05-10T13:05:26;19.20;67.10
48579;DHT22;34357;51.948;6.132;2023-05-10T13:07:51;19.20;66.30
48579;DHT22;34357;51.948;6.132;2023-05-10T13:10:20;19.50;65.00
48579;DHT22;34357;51.948;6.132;2023-05-10T13:12:45;19.30;66.60
48579;DHT22;34357;51.948;6.132;2023-05-10T13:15:11;19.20;65.90
48579;DHT22;34357;51.948;6.132;2023-05-10T13:17:37;19.30;66.60
48579;DHT22;34357;51.948;6.132;2023-05-10T13:20:04;19.10;64.50
48579;DHT22;34357;51.948;6.132;2023-05-10T13:22:31;19.20;65.60
48579;DHT22;34357;51.948;6.132;2023-05-10T13:24:56;19.10;65.80
48579;DHT22;34357;51.948;6.132;2023-05-10T13:27:22;19.00;66.30
48579;DHT22;34357;51.948;6.132;2023-05-10T13:29:48;18.80;66.70
48579;DHT22;34357;51.948;6.132;2023-05-10T13:32:14;18.70;65.30
48579;DHT22;34357;51.948;6.132;2023-05-10T13:34:39;18.70;67.50
48579;DHT22;34357;51.948;6.132;2023-05-10T13:37:05;19.00;67.60
48579;DHT22;34357;51.948;6.132;2023-05-10T13:39:31;19.00;66.80
48579;DHT22;34357;51.948;6.132;2023-05-10T13:41:59;19.00;65.70
48579;DHT22;34357;51.948;6.132;2023-05-10T13:44:25;19.20;66.20
48579;DHT22;34357;51.948;6.132;2023-05-10T13:46:51;19.00;66.50
48579;DHT22;34357;51.948;6.132;2023-05-10T13:49:17;19.00;67.10
48579;DHT22;34357;51.948;6.132;2023-05-10T13:51:43;19.00;65.50
48579;DHT22;34357;51.948;6.132;2023-05-10T13:54:09;18.90;67.30
48579;DHT22;34357;51.948;6.132;2023-05-10T13:56:34;18.60;66.30
48579;DHT22;34357;51.948;6.132;2023-05-10T13:59:00;18.50;68.00
48579;DHT22;34357;51.948;6.132;2023-05-10T14:01:26;18.40;68.30
48579;DHT22;34357;51.948;6.132;2023-05-10T14:03:52;18.20;68.30
48579;DHT22;34357;51.948;6.132;2023-05-10T14:06:18;18.20;68.80
48579;DHT22;34357;51.948;6.132;2023-05-10T14:08:43;18.00;69.80
48579;DHT22;34357;51.948;6.132;2023-05-10T14:11:09;17.80;69.80
48579;DHT22;34357;51.948;6.132;2023-05-10T14:13:35;17.70;70.70
48579;DHT22;34357;51.948;6.132;2023-05-10T14:16:01;17.60;71.10
48579;DHT22;34357;51.948;6.132;2023-05-10T14:18:27;17.50;71.00
48579;DHT22;34357;51.948;6.132;2023-05-10T14:20:53;17.40;72.30
48579;DHT22;34357;51.948;6.132;2023-05-10T14:23:18;17.40;72.60
48579;DHT22;34357;51.948;6.132;2023-05-10T14:25:52;17.30;73.40
48579;DHT22;34357;51.948;6.132;2023-05-10T14:28:19;16.90;76.30
48579;DHT22;34357;51.948;6.132;2023-05-10T14:30:45;16.90;77.60
48579;DHT22;34357;51.948;6.132;2023-05-10T14:33:11;16.80;78.10
48579;DHT22;34357;51.948;6.132;2023-05-10T14:35:37;16.80;78.10
48579;DHT22;34357;51.948;6.132;2023-05-10T14:38:03;16.80;78.20
48579;DHT22;34357;51.948;6.132;2023-05-10T14:40:30;16.80;78.60
48579;DHT22;34357;51.948;6.132;2023-05-10T14:42:55;16.80;79.30
48579;DHT22;34357;51.948;6.132;2023-05-10T14:45:22;16.70;79.40
48579;DHT22;34357;51.948;6.132;2023-05-10T14:47:49;16.90;78.80
48579;DHT22;34357;51.948;6.132;2023-05-10T14:50:14;16.90;77.80
48579;DHT22;34357;51.948;6.132;2023-05-10T14:52:44;16.70;76.60
48579;DHT22;34357;51.948;6.132;2023-05-10T14:55:10;16.70;76.20
48579;DHT22;34357;51.948;6.132;2023-05-10T14:57:36;16.70;77.20
48579;DHT22;34357;51.948;6.132;2023-05-10T15:00:03;16.70;76.80
48579;DHT22;34357;51.948;6.132;2023-05-10T15:02:30;16.90;77.10
48579;DHT22;34357;51.948;6.132;2023-05-10T15:04:56;16.90;76.20
48579;DHT22;34357;51.948;6.132;2023-05-10T15:07:23;17.20;76.00
48579;DHT22;34357;51.948;6.132;2023-05-10T15:09:49;17.20;77.00
48579;DHT22;34357;51.948;6.132;2023-05-10T15:12:15;17.10;77.90
48579;DHT22;34357;51.948;6.132;2023-05-10T15:14:41;17.10;75.90
48579;DHT22;34357;51.948;6.132;2023-05-10T15:17:07;17.20;75.90
48579;DHT22;34357;51.948;6.132;2023-05-10T15:19:33;17.30;75.60
48579;DHT22;34357;51.948;6.132;2023-05-10T15:21:59;17.10;74.50
48579;DHT22;34357;51.948;6.132;2023-05-10T15:24:25;17.10;76.30
48579;DHT22;34357;51.948;6.132;2023-05-10T15:26:50;17.20;75.60
48579;DHT22;34357;51.948;6.132;2023-05-10T15:29:16;17.30;77.10
48579;DHT22;34357;51.948;6.132;2023-05-10T15:31:46;17.50;76.50
48579;DHT22;34357;51.948;6.132;2023-05-10T15:34:13;17.60;75.40
48579;DHT22;34357;51.948;6.132;2023-05-10T15:36:39;17.50;77.00
48579;DHT22;34357;51.948;6.132;2023-05-10T15:39:05;17.30;76.60
48579;DHT22;34357;51.948;6.132;2023-05-10T15:41:31;17.10;77.20
48579;DHT22;34357;51.948;6.132;2023-05-10T15:43:57;17.00;76.00
48579;DHT22;34357;51.948;6.132;2023-05-10T15:46:25;16.90;76.70
48579;DHT22;34357;51.948;6.132;2023-05-10T15:48:51;17.10;77.50
48579;DHT22;34357;51.948;6.132;2023-05-10T15:51:17;17.20;75.80
48579;DHT22;34357;51.948;6.132;2023-05-10T15:53:44;17.40;76.30
48579;DHT22;34357;51.948;6.132;2023-05-10T15:56:10;17.50;75.00
48579;DHT22;34357;51.948;6.132;2023-05-10T15:58:37;17.60;74.90
48579;DHT22;34357;51.948;6.132;2023-05-10T16:01:03;17.60;75.40
48579;DHT22;34357;51.948;6.132;2023-05-10T16:03:30;17.70;75.20